Sherwin, Kansas
Current Conditions -  °F | °C
As of 7:35 PM on Sunday 23 Nov 2014 (Local Time) from KPTS Reporting Station
Light Rain Light Rain  
Wind Chill: 42°   Ceiling: 1300
Heat Index: 48°   Visibility: 10mi
Dew Point: 48°   Wind: 16mph
Humidity: 98%   Direction: 350°N
Pressure: 29.39"   Gusts: 29mph
Location:  37.1637°N, 94.898°W
Report Text: KPTS 240135Z AUTO 35014G25KT 10SM -RA OVC013 09/09 A2939 RMK AO2 P0002 T00900087
Loading
Personal Weather Stations






























Interactive Weather Map New forecast layout! Learn more

10-Day Weather Forecast

Advertisements
Track Severe Weather on mobile